createdAt,value
2022-08-07T00:02:36.165Z,7.75
2022-08-07T00:04:59.331Z,8.10
2022-08-07T00:07:28.195Z,9.10
2022-08-07T00:13:01.765Z,8.40
2022-08-07T00:15:36.148Z,8.43
2022-08-07T00:18:19.810Z,8.32
2022-08-07T00:20:52.038Z,8.13
2022-08-07T00:23:21.122Z,9.52
2022-08-07T00:25:52.415Z,8.00
2022-08-07T00:28:33.345Z,8.82
2022-08-07T00:31:04.328Z,8.02
2022-08-07T00:33:35.757Z,8.40
2022-08-07T00:36:06.554Z,8.73
2022-08-07T00:38:37.036Z,8.80
2022-08-07T00:41:10.000Z,7.88
2022-08-07T00:44:00.754Z,9.80
2022-08-07T00:46:33.186Z,8.00
2022-08-07T00:49:03.559Z,7.38
2022-08-07T00:51:57.538Z,8.48
2022-08-07T00:54:22.505Z,7.82
2022-08-07T00:56:51.420Z,7.53
2022-08-07T00:59:35.204Z,7.95
2022-08-07T01:02:14.125Z,8.75
2022-08-07T01:04:58.406Z,8.05
2022-08-07T01:07:29.642Z,9.43
2022-08-07T01:10:06.373Z,7.78
2022-08-07T01:12:53.429Z,7.88
2022-08-07T01:15:36.112Z,7.85
2022-08-07T01:18:16.864Z,7.28
2022-08-07T01:20:58.453Z,8.60
2022-08-07T01:23:38.409Z,7.65
2022-08-07T01:26:12.392Z,8.50
2022-08-07T01:28:48.769Z,7.65
2022-08-07T01:31:42.361Z,8.07
2022-08-07T01:34:14.919Z,7.55
2022-08-07T01:36:52.388Z,8.75
2022-08-07T01:39:41.101Z,8.23
2022-08-07T01:42:39.658Z,8.20
2022-08-07T01:45:22.737Z,8.13
2022-08-07T01:48:21.722Z,8.77
2022-08-07T01:50:47.990Z,8.05
2022-08-07T01:53:20.862Z,8.00
2022-08-07T01:55:57.769Z,8.50
2022-08-07T01:58:33.341Z,7.75
2022-08-07T02:01:10.272Z,7.70
2022-08-07T02:04:00.491Z,7.55
2022-08-07T02:06:32.860Z,7.45
2022-08-07T02:09:07.460Z,8.02
2022-08-07T02:12:03.482Z,7.55
2022-08-07T02:14:35.513Z,8.15
2022-08-07T02:17:06.387Z,8.90
2022-08-07T02:20:05.790Z,7.25
2022-08-07T02:22:25.937Z,7.65
2022-08-07T02:24:55.640Z,7.55
2022-08-07T02:27:25.510Z,7.95
2022-08-07T02:29:55.146Z,6.55
2022-08-07T02:32:29.934Z,7.05
2022-08-07T02:35:00.991Z,7.57
2022-08-07T02:37:34.265Z,8.80
2022-08-07T02:40:29.818Z,7.53
2022-08-07T02:42:59.195Z,7.75
2022-08-07T02:45:58.251Z,6.97
2022-08-07T02:48:17.588Z,7.57
2022-08-07T02:51:28.859Z,7.55
2022-08-07T02:54:02.794Z,7.38
2022-08-07T02:56:32.937Z,7.25
2022-08-07T02:59:06.253Z,6.00
2022-08-07T03:01:40.376Z,6.57
2022-08-07T03:04:14.113Z,7.28
2022-08-07T03:06:48.107Z,6.82
2022-08-07T03:09:42.405Z,6.70
2022-08-07T03:12:22.211Z,5.88
2022-08-07T03:15:08.145Z,6.30
2022-08-07T03:17:53.508Z,6.10
2022-08-07T03:20:25.379Z,6.47
2022-08-07T03:22:54.061Z,6.20
2022-08-07T03:25:25.800Z,6.70
2022-08-07T03:28:09.494Z,6.18
2022-08-07T03:31:13.727Z,6.13
2022-08-07T03:33:43.238Z,5.67
2022-08-07T03:36:15.249Z,6.55
2022-08-07T03:38:47.032Z,6.07
2022-08-07T03:41:17.872Z,6.10
2022-08-07T03:43:56.738Z,5.95
2022-08-07T03:46:27.328Z,5.90
2022-08-07T03:49:07.807Z,5.60
2022-08-07T03:51:47.418Z,5.95
2022-08-07T03:54:36.324Z,6.00
2022-08-07T03:58:34.023Z,5.82
2022-08-07T04:00:05.925Z,5.80
2022-08-07T04:02:47.167Z,6.38
2022-08-07T04:08:20.930Z,6.45
2022-08-07T04:10:54.074Z,6.35
2022-08-07T04:14:33.032Z,6.57
2022-08-07T04:16:32.669Z,6.10
2022-08-07T04:19:12.829Z,5.97
2022-08-07T04:21:59.273Z,6.00
2022-08-07T04:24:42.390Z,5.68
2022-08-07T04:27:20.763Z,5.28
2022-08-07T04:30:04.478Z,5.88
2022-08-07T04:32:49.059Z,5.43
2022-08-07T04:35:35.148Z,5.20
2022-08-07T04:38:13.334Z,5.43
2022-08-07T04:40:51.681Z,4.72
2022-08-07T04:44:13.055Z,4.35
2022-08-07T04:47:04.349Z,4.43
2022-08-07T04:50:04.455Z,4.50
2022-08-07T04:52:54.609Z,3.80
2022-08-07T04:58:11.902Z,4.05
2022-08-07T04:59:09.182Z,3.75
2022-08-07T05:02:05.299Z,3.83
2022-08-07T05:05:02.872Z,3.42
2022-08-07T05:07:54.606Z,3.30
2022-08-07T05:10:32.142Z,3.42
2022-08-07T05:14:53.976Z,3.20
2022-08-07T05:16:26.131Z,3.08
2022-08-07T05:19:00.357Z,3.10
2022-08-07T05:22:00.106Z,3.30
2022-08-07T05:24:30.397Z,2.70
2022-08-07T05:27:14.530Z,3.00
2022-08-07T05:30:03.726Z,3.05
2022-08-07T05:32:32.883Z,3.63
2022-08-07T05:35:03.428Z,3.25
2022-08-07T05:37:37.773Z,3.05
2022-08-07T05:40:18.796Z,2.95
2022-08-07T05:42:56.342Z,2.90
2022-08-07T05:45:46.490Z,3.17
2022-08-07T05:48:16.876Z,3.20
2022-08-07T05:50:47.362Z,3.00
2022-08-07T05:54:12.225Z,3.42
2022-08-07T05:56:10.403Z,3.28
2022-08-07T05:58:52.488Z,3.47
2022-08-07T06:01:25.925Z,3.20
2022-08-07T06:03:58.907Z,3.38
2022-08-07T06:06:38.444Z,3.85
2022-08-07T06:09:16.554Z,3.72
2022-08-07T06:11:49.699Z,3.80
2022-08-07T06:14:28.521Z,3.92
2022-08-07T06:17:01.637Z,3.40
2022-08-07T06:19:57.836Z,3.90
2022-08-07T06:22:28.561Z,4.35
2022-08-07T06:25:10.403Z,4.00
2022-08-07T06:28:00.545Z,3.90
2022-08-07T06:30:37.488Z,3.72
2022-08-07T06:33:18.455Z,4.13
2022-08-07T06:36:12.314Z,3.45
2022-08-07T06:38:51.262Z,3.33
2022-08-07T06:42:00.658Z,4.33
2022-08-07T06:44:41.335Z,3.50
2022-08-07T06:47:15.389Z,3.40
2022-08-07T06:49:51.901Z,3.58
2022-08-07T06:52:36.021Z,3.83
2022-08-07T06:55:53.954Z,3.35
2022-08-07T06:58:17.437Z,2.95
2022-08-07T07:01:00.385Z,3.17
2022-08-07T07:03:48.708Z,3.10
2022-08-07T07:06:26.529Z,3.22
2022-08-07T07:08:58.142Z,2.90
2022-08-07T07:12:08.579Z,3.08
2022-08-07T07:14:15.816Z,2.90
2022-08-07T07:16:50.672Z,2.72
2022-08-07T07:19:55.923Z,3.00
2022-08-07T07:22:36.622Z,2.50
2022-08-07T07:26:30.758Z,2.80
2022-08-07T07:28:41.923Z,2.65
2022-08-07T07:31:17.314Z,2.30
2022-08-07T07:36:32.410Z,3.15
2022-08-07T07:39:01.585Z,2.72
2022-08-07T07:41:30.906Z,2.42
2022-08-07T07:44:26.107Z,2.47
2022-08-07T07:47:04.336Z,2.83
2022-08-07T07:50:34.944Z,2.30
2022-08-07T07:52:32.069Z,2.53
2022-08-07T07:55:00.085Z,2.75
2022-08-07T07:57:43.989Z,2.30
2022-08-07T08:00:21.146Z,2.50
2022-08-07T08:03:08.439Z,2.10
2022-08-07T08:05:53.817Z,1.98
2022-08-07T08:08:35.448Z,2.38
2022-08-07T08:11:09.008Z,2.20
2022-08-07T08:13:54.729Z,2.35
2022-08-07T08:16:53.608Z,2.22
2022-08-07T08:20:15.982Z,2.55
2022-08-07T08:22:32.788Z,2.28
2022-08-07T08:25:42.296Z,2.53
2022-08-07T08:28:16.848Z,2.17
2022-08-07T08:30:59.536Z,1.60
2022-08-07T08:33:33.180Z,2.38
2022-08-07T08:36:02.167Z,2.03
2022-08-07T08:38:40.409Z,1.98
2022-08-07T08:41:56.921Z,2.35
2022-08-07T08:47:13.571Z,1.90
2022-08-07T08:50:04.636Z,2.40
2022-08-07T08:53:05.515Z,1.77
2022-08-07T08:55:58.504Z,2.00
2022-08-07T08:58:56.536Z,2.00
2022-08-07T09:01:43.613Z,2.15
2022-08-07T09:04:26.064Z,1.77
2022-08-07T09:07:02.522Z,1.80
2022-08-07T09:09:36.724Z,1.92
2022-08-07T09:12:19.943Z,2.13
2022-08-07T09:16:22.203Z,1.88
2022-08-07T09:18:22.090Z,1.80
2022-08-07T09:21:06.464Z,1.98
2022-08-07T09:26:47.951Z,2.35
2022-08-07T09:30:03.470Z,2.15
2022-08-07T09:32:58.001Z,1.80
2022-08-07T09:36:04.125Z,1.77
2022-08-07T09:38:54.967Z,2.05
2022-08-07T09:41:59.125Z,1.60
2022-08-07T09:44:58.498Z,1.40
2022-08-07T09:48:00.393Z,1.55
2022-08-07T09:50:46.935Z,1.60
2022-08-07T09:53:14.661Z,1.55
2022-08-07T09:56:05.143Z,1.67
2022-08-07T09:58:54.646Z,1.40
2022-08-07T10:01:51.739Z,1.17
2022-08-07T10:04:28.253Z,1.15
2022-08-07T10:07:31.638Z,1.80
2022-08-07T10:10:06.396Z,1.48
2022-08-07T10:13:10.966Z,1.42
2022-08-07T10:15:49.160Z,1.48
2022-08-07T10:18:56.700Z,1.70
2022-08-07T10:22:14.982Z,1.50
2022-08-07T10:24:49.811Z,1.23
2022-08-07T10:27:45.907Z,1.60
2022-08-07T10:30:25.040Z,1.50
2022-08-07T10:34:06.283Z,1.52
2022-08-07T10:36:29.721Z,1.63
2022-08-07T10:39:18.927Z,1.30
2022-08-07T10:42:21.307Z,1.33
2022-08-07T10:45:01.953Z,1.42
2022-08-07T10:50:31.931Z,1.58
2022-08-07T10:53:10.894Z,1.90
2022-08-07T10:56:30.954Z,1.25
2022-08-07T10:59:11.076Z,1.50
2022-08-07T11:01:51.928Z,1.40
2022-08-07T11:04:40.233Z,1.60
2022-08-07T11:07:14.889Z,1.55
2022-08-07T11:10:07.589Z,1.60
2022-08-07T11:13:02.252Z,1.60
2022-08-07T11:15:34.538Z,1.13
2022-08-07T11:18:50.993Z,1.30
2022-08-07T11:21:19.456Z,1.40
2022-08-07T11:24:04.846Z,1.40
2022-08-07T11:26:50.506Z,1.73
2022-08-07T11:29:42.683Z,1.50
2022-08-07T11:32:15.514Z,1.40
2022-08-07T11:35:03.197Z,1.33
2022-08-07T11:37:38.538Z,1.65
2022-08-07T11:40:59.969Z,1.40
2022-08-07T11:43:54.690Z,1.40
2022-08-07T11:46:50.252Z,1.40
2022-08-07T11:50:18.664Z,1.35
2022-08-07T11:52:35.653Z,1.70
2022-08-07T11:55:12.994Z,1.20
2022-08-07T12:00:53.649Z,1.40
2022-08-07T12:03:46.398Z,1.80
2022-08-07T12:06:37.879Z,1.48
2022-08-07T12:09:51.432Z,1.42
2022-08-07T12:12:22.538Z,1.60
2022-08-07T12:15:02.062Z,1.30
2022-08-07T12:17:58.548Z,1.27
2022-08-07T12:20:30.753Z,1.52
2022-08-07T12:23:15.096Z,1.52
2022-08-07T12:26:22.394Z,1.90
2022-08-07T12:29:03.925Z,3.20
2022-08-07T12:31:52.371Z,1.30
2022-08-07T12:34:25.894Z,1.70
2022-08-07T12:39:44.434Z,1.58
2022-08-07T12:42:13.194Z,1.23
2022-08-07T12:44:42.982Z,1.73
2022-08-07T12:47:30.785Z,1.50
2022-08-07T12:50:39.081Z,1.98
2022-08-07T12:53:18.797Z,1.35
2022-08-07T12:56:10.722Z,1.20
2022-08-07T12:58:43.020Z,1.27
2022-08-07T13:01:19.674Z,1.55
2022-08-07T13:04:32.652Z,1.30
2022-08-07T13:08:11.613Z,1.35
2022-08-07T13:10:29.342Z,1.13
2022-08-07T13:13:47.823Z,1.40
2022-08-07T13:16:11.121Z,1.23
2022-08-07T13:19:21.672Z,1.50
2022-08-07T13:22:12.677Z,1.63
2022-08-07T13:24:56.778Z,1.27
2022-08-07T13:27:33.247Z,1.50
2022-08-07T13:30:18.857Z,1.40
2022-08-07T13:32:53.056Z,1.53
2022-08-07T13:36:00.867Z,1.40
2022-08-07T13:38:45.593Z,1.52
2022-08-07T13:41:42.183Z,1.48
2022-08-07T13:44:13.025Z,1.30
2022-08-07T13:46:48.853Z,1.40
2022-08-07T13:50:35.354Z,1.50
2022-08-07T13:52:31.696Z,1.30
2022-08-07T13:54:58.130Z,1.50
2022-08-07T13:57:26.968Z,1.70
2022-08-07T14:00:10.350Z,1.23
2022-08-07T14:02:55.654Z,1.40
2022-08-07T14:05:23.733Z,1.38
2022-08-07T14:07:59.604Z,1.30
2022-08-07T14:10:41.743Z,1.52
2022-08-07T14:13:33.605Z,1.20
2022-08-07T14:16:06.341Z,1.30
2022-08-07T14:18:49.931Z,1.25
2022-08-07T14:22:02.345Z,1.80
2022-08-07T14:24:37.553Z,1.40
2022-08-07T14:28:09.538Z,1.70
2022-08-07T14:30:05.441Z,1.37
2022-08-07T14:32:43.173Z,1.33
2022-08-07T14:35:16.257Z,2.05
2022-08-07T14:38:06.053Z,1.30
2022-08-07T14:40:36.017Z,1.50
2022-08-07T14:43:57.357Z,1.52
2022-08-07T14:45:57.782Z,1.95
2022-08-07T14:48:33.080Z,1.90
2022-08-07T14:51:15.837Z,1.85
2022-08-07T14:54:03.649Z,1.50
2022-08-07T14:56:33.463Z,2.10
2022-08-07T14:59:13.853Z,2.00
2022-08-07T15:01:58.407Z,1.90
2022-08-07T15:04:28.812Z,2.17
2022-08-07T15:06:57.040Z,2.40
2022-08-07T15:10:00.001Z,2.58
2022-08-07T15:12:26.002Z,3.40
2022-08-07T15:15:17.350Z,3.40
2022-08-07T15:17:57.159Z,2.80
2022-08-07T15:20:33.865Z,2.55
2022-08-07T15:25:12.827Z,3.15
2022-08-07T15:26:20.860Z,2.55
2022-08-07T15:28:56.638Z,3.10
2022-08-07T15:32:01.217Z,3.38
2022-08-07T15:34:17.171Z,3.40
2022-08-07T15:37:03.706Z,3.50
2022-08-07T15:39:56.272Z,2.92
2022-08-07T15:42:43.933Z,3.40
2022-08-07T15:45:14.734Z,3.40
2022-08-07T15:53:51.621Z,3.30
2022-08-07T15:56:35.278Z,2.80
2022-08-07T15:59:16.327Z,3.80
2022-08-07T16:02:02.582Z,3.83
2022-08-07T16:04:32.162Z,3.63
2022-08-07T16:07:00.990Z,3.70
2022-08-07T16:09:42.336Z,4.15
2022-08-07T16:12:25.068Z,3.67
2022-08-07T16:15:03.306Z,3.60
2022-08-07T16:18:49.569Z,4.13
2022-08-07T16:22:01.226Z,4.03
2022-08-07T16:24:35.547Z,3.90
2022-08-07T16:27:18.097Z,4.07
2022-08-07T16:30:30.616Z,4.50
2022-08-07T16:34:02.195Z,4.35
2022-08-07T16:36:30.963Z,5.47
2022-08-07T16:39:49.358Z,6.15
2022-08-07T16:42:52.506Z,4.82
2022-08-07T16:46:33.209Z,5.60
2022-08-07T16:49:10.607Z,5.05
2022-08-07T16:52:11.358Z,5.40
2022-08-07T16:55:08.447Z,5.53
2022-08-07T16:58:02.727Z,5.70
2022-08-07T17:03:17.190Z,5.65
2022-08-07T17:06:28.566Z,6.30
2022-08-07T17:09:09.722Z,6.85
2022-08-07T17:12:04.961Z,6.38
2022-08-07T17:15:03.540Z,6.13
2022-08-07T17:17:46.144Z,6.73
2022-08-07T17:20:37.886Z,7.65
2022-08-07T17:23:14.218Z,7.13
2022-08-07T17:26:23.298Z,7.22
2022-08-07T17:28:58.563Z,8.43
2022-08-07T17:31:43.904Z,11.20
2022-08-07T17:34:33.468Z,12.68
2022-08-07T17:37:14.417Z,11.75
2022-08-07T17:40:07.874Z,10.43
2022-08-07T17:42:58.631Z,8.25
2022-08-07T17:45:34.168Z,7.03
2022-08-07T17:48:11.296Z,7.30
2022-08-07T17:50:55.803Z,6.00
2022-08-07T17:53:59.786Z,6.40
2022-08-07T17:56:49.407Z,6.68
2022-08-07T17:59:21.305Z,5.80
2022-08-07T18:02:12.881Z,6.70
2022-08-07T18:04:48.924Z,5.60
2022-08-07T18:07:34.102Z,5.50
2022-08-07T18:10:32.624Z,4.82
2022-08-07T18:13:01.278Z,5.50
2022-08-07T18:15:32.591Z,5.75
2022-08-07T18:18:47.598Z,5.57
2022-08-07T18:21:42.064Z,5.90
2022-08-07T18:24:33.005Z,5.75
2022-08-07T18:27:07.764Z,5.57
2022-08-07T18:30:32.371Z,5.75
2022-08-07T18:33:39.075Z,6.25
2022-08-07T18:36:58.196Z,5.63
2022-08-07T18:40:06.916Z,6.65
2022-08-07T18:43:15.118Z,6.28
2022-08-07T18:46:24.580Z,6.10
2022-08-07T18:50:32.340Z,6.47
2022-08-07T18:52:37.823Z,6.32
2022-08-07T18:55:43.118Z,6.25
2022-08-07T18:58:34.117Z,7.17
2022-08-07T19:01:05.868Z,7.22
2022-08-07T19:03:49.755Z,7.68
2022-08-07T19:06:33.947Z,7.30
2022-08-07T19:09:57.897Z,7.05
2022-08-07T19:12:53.491Z,7.22
2022-08-07T19:16:05.878Z,6.78
2022-08-07T19:18:35.513Z,6.65
2022-08-07T19:21:47.707Z,7.00
2022-08-07T19:24:43.587Z,6.45
2022-08-07T19:28:29.951Z,7.32
2022-08-07T19:31:05.679Z,7.47
2022-08-07T19:32:59.671Z,7.30
2022-08-07T19:35:33.445Z,7.05
2022-08-07T19:38:04.095Z,7.68
2022-08-07T19:40:49.295Z,7.05
2022-08-07T19:43:43.956Z,7.25
2022-08-07T19:46:19.584Z,7.45
2022-08-07T19:48:53.800Z,8.07
2022-08-07T19:51:51.188Z,7.55
2022-08-07T19:54:34.344Z,8.73
2022-08-07T19:58:02.925Z,8.07
2022-08-07T20:00:02.293Z,8.45
2022-08-07T20:02:53.447Z,9.05
2022-08-07T20:05:28.123Z,7.95
2022-08-07T20:08:04.766Z,8.32
2022-08-07T20:10:52.329Z,7.72
2022-08-07T20:13:31.852Z,8.82
2022-08-07T20:16:01.502Z,8.10
2022-08-07T20:18:32.927Z,8.43
2022-08-07T20:21:21.144Z,8.82
2022-08-07T20:24:03.813Z,8.88
2022-08-07T20:26:44.748Z,9.68
2022-08-07T20:29:17.032Z,10.45
2022-08-07T20:32:03.939Z,11.38
2022-08-07T20:34:50.336Z,11.40
2022-08-07T20:37:23.706Z,12.68
2022-08-07T20:40:03.884Z,13.43
2022-08-07T20:42:36.550Z,13.02
2022-08-07T20:45:32.592Z,15.68
2022-08-07T20:47:57.955Z,17.45
2022-08-07T20:50:28.098Z,22.30
2022-08-07T20:52:55.759Z,26.33
2022-08-07T20:55:24.471Z,25.83
2022-08-07T20:58:02.742Z,29.85
2022-08-07T21:00:44.395Z,32.78
2022-08-07T21:03:14.614Z,31.95
2022-08-07T21:05:55.904Z,32.42
2022-08-07T21:08:38.056Z,35.85
2022-08-07T21:11:12.368Z,39.65
2022-08-07T21:14:32.101Z,43.33
2022-08-07T21:18:03.234Z,47.95
2022-08-07T21:20:00.631Z,48.70
2022-08-07T21:22:54.500Z,48.53
2022-08-07T21:25:42.632Z,48.88
2022-08-07T21:28:47.528Z,50.22
2022-08-07T21:31:31.289Z,53.22
2022-08-07T21:34:21.808Z,61.53
2022-08-07T21:37:09.117Z,56.50
2022-08-07T21:40:01.224Z,55.80
2022-08-07T21:42:55.078Z,56.70
2022-08-07T21:46:08.017Z,53.92
2022-08-07T21:49:00.850Z,54.63
2022-08-07T21:51:28.549Z,48.63
2022-08-07T21:54:22.056Z,52.25
2022-08-07T21:57:10.960Z,55.03
2022-08-07T22:00:06.130Z,51.58
2022-08-07T22:02:49.962Z,34.67
2022-08-07T22:05:45.389Z,39.67
2022-08-07T22:08:11.535Z,32.55
2022-08-07T22:10:42.365Z,28.50
2022-08-07T22:13:13.805Z,21.17
2022-08-07T22:19:23.598Z,18.70
2022-08-07T22:22:28.509Z,22.17
2022-08-07T22:25:07.631Z,23.08
2022-08-07T22:28:29.849Z,21.13
2022-08-07T22:30:52.982Z,21.77
2022-08-07T22:33:50.978Z,17.50
2022-08-07T22:38:52.084Z,20.92
2022-08-07T22:42:03.045Z,14.55
2022-08-07T22:44:23.498Z,16.30
2022-08-07T22:47:09.399Z,16.10
2022-08-07T22:50:04.548Z,15.85
2022-08-07T22:52:50.870Z,14.77
2022-08-07T22:55:43.933Z,14.82
2022-08-07T22:58:18.254Z,14.07
2022-08-07T23:01:05.397Z,13.60
2022-08-07T23:03:58.219Z,13.40
2022-08-07T23:07:33.600Z,13.75
2022-08-07T23:10:37.261Z,11.50
2022-08-07T23:13:48.371Z,11.50
2022-08-07T23:16:55.069Z,11.70
2022-08-07T23:19:51.368Z,11.13
2022-08-07T23:22:39.189Z,9.70
2022-08-07T23:25:13.691Z,10.98
2022-08-07T23:28:21.467Z,9.13
2022-08-07T23:31:11.616Z,9.38
2022-08-07T23:34:36.602Z,10.45
2022-08-07T23:36:43.072Z,9.57
2022-08-07T23:39:48.301Z,9.15
2022-08-07T23:43:02.359Z,8.55
2022-08-07T23:48:41.002Z,9.65
2022-08-07T23:52:59.792Z,9.63
2022-08-07T23:54:19.631Z,8.90
2022-08-07T23:56:59.756Z,9.55
